Ibra, Oman
Current Conditions -  °F | °C
As of 7:50 AM on Friday 31 Oct 2014 (Local Time) from OOMS Reporting Station
Broken Clouds Broken Clouds  
Wind Chill: 82°   Ceiling: 2500
Heat Index: 88°   Visibility: 5mi
Dew Point: 73°   Wind: 9mph
Humidity: 74%   Direction: 80°E
Pressure: 29.94"   Gusts: NA
Location:  22.72°N, 58.53°E
Report Text: OOMS 310350Z 08008KT 8000 BKN025 28/23 Q1014 NOSIG
Loading
Personal Weather Stations






























Interactive Weather Map
Tropical Storm Tracking
New forecast layout! Learn more

10-Day Weather Forecast

Advertisements
Track Severe Weather on mobile